»·PEaware :: N50212 KAVX-KSNA

N50212 :: KAVX-KSNA

FLIGHT INFORMATION

Flight Status: Arrived
Operator: Privately registered:
United States
More flights under this callsign
Pilot: Brad H. (9994)
Aircraft: PIPER PA-34 SENECA
(PA34)
More flights by this aircraft type
Origin: KAVX Catalina
United States
Destination: KSNA John Wayne-Orange Co
United States
More flights between these airports :: More routes between these airports
Route: +SXC V21 SLI ILS20R
File this flight plan on PilotEdge
Remarks: WX will be IMC to min during approach
Altitude:
(Current/Filed)
5,000ft
Speed:
(Current/Filed)
140kts
Departed: 07-Dec-17 11:38 AM
Arrived: 07-Dec-17 12:19 PM
Distance/Time
Traveled:
32nm/0:41
Distance/Time
To Go:
Arrived

Flight Plot

Page will automatically refresh every two minutes.

Flight plan parsing failed; only flown route is shown


Map Options




Map Legend


Flown Route
Filed Route
Departure Airport
Arrival Airport
Navaid (VOR, NDB)
Fix

Horizontal Profiles

Position Reports

Time Latitude Longitude Heading Altitude Ground
Speed
07-Dec-17 10:17 33.403472 -118.415562 58 1546ft 0kts
07-Dec-17 10:18 33.403472 -118.415562 58 1546ft 0kts
07-Dec-17 10:19 33.403472 -118.415562 58 1546ft 0kts
07-Dec-17 10:20 33.403472 -118.415562 58 1546ft 0kts
07-Dec-17 10:21 33.403472 -118.415562 58 1546ft 0kts
07-Dec-17 10:22 33.403472 -118.415562 58 1546ft 0kts
07-Dec-17 10:23 33.403472 -118.415562 58 1546ft 0kts
07-Dec-17 10:24 33.403472 -118.415562 58 1546ft 0kts
07-Dec-17 10:25 33.403472 -118.415562 58 1546ft 0kts
07-Dec-17 10:26 33.403472 -118.415562 58 1546ft 0kts
07-Dec-17 10:27 33.403472 -118.415562 58 1546ft 0kts
07-Dec-17 10:28 33.403472 -118.415562 58 1546ft 0kts
07-Dec-17 10:29 33.403472 -118.415562 58 1546ft 0kts
07-Dec-17 10:30 33.403472 -118.415562 58 1546ft 0kts
07-Dec-17 10:31 33.403472 -118.415562 58 1546ft 0kts
07-Dec-17 10:32 33.403472 -118.415562 58 1546ft 0kts
07-Dec-17 10:33 33.403472 -118.415562 58 1546ft 0kts
07-Dec-17 10:34 33.403472 -118.415562 58 1546ft 0kts
07-Dec-17 10:35 33.403472 -118.415562 58 1546ft 0kts
07-Dec-17 10:36 33.403472 -118.415562 58 1546ft 0kts
07-Dec-17 10:37 33.403472 -118.415562 58 1546ft 0kts
07-Dec-17 10:38 33.403472 -118.415562 58 1546ft 0kts
07-Dec-17 10:39 33.403472 -118.415562 58 1546ft 0kts
07-Dec-17 10:40 33.403472 -118.415562 58 1546ft 0kts
07-Dec-17 10:41 33.403472 -118.415562 58 1546ft 0kts
07-Dec-17 10:42 33.403472 -118.415562 58 1546ft 0kts
07-Dec-17 10:43 33.403472 -118.415562 58 1546ft 0kts
07-Dec-17 10:44 33.403472 -118.415562 58 1546ft 0kts
07-Dec-17 10:45 33.403472 -118.415562 58 1546ft 0kts
07-Dec-17 10:46 33.403472 -118.415562 58 1546ft 0kts
07-Dec-17 10:47 33.403472 -118.415562 58 1546ft 0kts
07-Dec-17 10:48 33.403472 -118.415562 58 1546ft 0kts
07-Dec-17 10:49 33.403472 -118.415562 58 1546ft 0kts
07-Dec-17 10:50 33.403472 -118.415562 58 1546ft 0kts
07-Dec-17 10:51 33.403472 -118.415562 58 1546ft 0kts
07-Dec-17 10:52 33.403472 -118.415562 58 1546ft 0kts
07-Dec-17 10:53 33.403472 -118.415562 58 1546ft 0kts
07-Dec-17 10:54 33.403472 -118.415562 58 1546ft 0kts
07-Dec-17 10:55 33.403472 -118.415562 58 1546ft 0kts
07-Dec-17 10:56 33.403472 -118.415562 58 1546ft 0kts
07-Dec-17 10:57 33.403472 -118.415562 58 1546ft 0kts
07-Dec-17 10:58 33.403472 -118.415562 58 1546ft 0kts
07-Dec-17 10:59 33.403475 -118.415557 67 1546ft 0kts
07-Dec-17 11:00 33.403475 -118.415556 67 1546ft 0kts
07-Dec-17 11:01 33.403476 -118.415555 68 1546ft 0kts
07-Dec-17 11:02 33.403476 -118.415554 70 1546ft 0kts
07-Dec-17 11:03 33.403476 -118.415554 70 1546ft 0kts
07-Dec-17 11:04 33.403476 -118.415554 70 1546ft 0kts
07-Dec-17 11:05 33.403477 -118.415553 71 1546ft 0kts
07-Dec-17 11:06 33.403477 -118.415553 71 1546ft 0kts
07-Dec-17 11:07 33.403477 -118.415552 72 1546ft 0kts
07-Dec-17 11:08 33.403477 -118.415552 72 1546ft 0kts
07-Dec-17 11:09 33.403477 -118.415552 72 1546ft 0kts
07-Dec-17 11:10 33.403477 -118.415552 72 1546ft 0kts
07-Dec-17 11:11 33.403477 -118.415552 72 1546ft 0kts
07-Dec-17 11:12 33.403477 -118.415552 72 1546ft 0kts
07-Dec-17 11:13 33.403477 -118.415552 72 1546ft 0kts
07-Dec-17 11:14 33.403477 -118.415552 72 1546ft 0kts
07-Dec-17 11:15 33.403477 -118.415552 72 1546ft 0kts
07-Dec-17 11:16 33.403477 -118.415552 72 1546ft 0kts
07-Dec-17 11:17 33.403477 -118.415552 72 1546ft 0kts
07-Dec-17 11:18 33.403477 -118.415552 72 1546ft 0kts
07-Dec-17 11:19 33.403477 -118.415552 72 1546ft 0kts
07-Dec-17 11:20 33.403477 -118.415552 72 1546ft 0kts
07-Dec-17 11:21 33.403477 -118.415552 72 1546ft 0kts
07-Dec-17 11:22 33.403477 -118.415552 72 1546ft 0kts
07-Dec-17 11:23 33.403477 -118.415552 72 1546ft 0kts
07-Dec-17 11:24 33.403477 -118.415552 72 1546ft 0kts
07-Dec-17 11:25 33.403477 -118.415552 72 1546ft 0kts
07-Dec-17 11:26 33.403477 -118.415552 72 1546ft 0kts
07-Dec-17 11:27 33.403479 -118.415546 77 1546ft 0kts
07-Dec-17 11:28 33.403549 -118.416401 289 1552ft 0kts
07-Dec-17 11:29 33.402576 -118.419135 230 1549ft 11kts
07-Dec-17 11:30 33.401697 -118.419782 151 1546ft 1kts
07-Dec-17 11:31 33.402183 -118.419806 10 1546ft 0kts
07-Dec-17 11:32 33.402183 -118.419806 10 1546ft 0kts
07-Dec-17 11:33 33.402185 -118.419806 11 1546ft 0kts
07-Dec-17 11:34 33.402185 -118.419806 11 1546ft 0kts
07-Dec-17 11:35 33.402186 -118.419807 14 1546ft 0kts
07-Dec-17 11:36 33.402186 -118.419807 14 1546ft 0kts
07-Dec-17 11:37 33.402186 -118.419807 14 1546ft 0kts
07-Dec-17 11:38 33.402259 -118.419729 56 1546ft 2kts
07-Dec-17 11:39 33.403106 -118.418247 55 1554ft 9kts
07-Dec-17 11:41 33.404476 -118.415939 53 1549ft 9kts
07-Dec-17 11:42 33.405925 -118.413481 56 1530ft 13kts
07-Dec-17 11:43 33.407426 -118.411387 320 1509ft 4kts
07-Dec-17 11:44 33.400100 -118.426290 240 1704ft 126kts
07-Dec-17 11:45 33.382281 -118.458030 173 3268ft 108kts
07-Dec-17 11:46 33.358962 -118.441677 106 4186ft 102kts
07-Dec-17 11:47 33.381244 -118.418665 29 4403ft 138kts
07-Dec-17 11:48 33.420509 -118.401046 36 4015ft 148kts
07-Dec-17 11:49 33.452633 -118.373078 44 4010ft 139kts
07-Dec-17 11:50 33.482647 -118.343824 42 4004ft 140kts
07-Dec-17 11:51 33.513062 -118.313965 39 4006ft 142kts
07-Dec-17 11:52 33.540467 -118.279399 51 4005ft 145kts
07-Dec-17 11:53 33.564844 -118.240879 51 4003ft 147kts
07-Dec-17 11:54 33.589352 -118.201546 51 3997ft 147kts
07-Dec-17 11:55 33.608763 -118.158689 69 3994ft 147kts
07-Dec-17 11:56 33.620547 -118.112175 68 3984ft 143kts
07-Dec-17 11:57 33.632084 -118.067154 69 3982ft 139kts
07-Dec-17 11:58 33.657673 -118.036384 29 3985ft 140kts
07-Dec-17 11:59 33.692443 -118.015599 31 3986ft 141kts
07-Dec-17 11:59 33.721884 -117.998135 30 3994ft 142kts
07-Dec-17 12:01 33.757777 -117.965143 42 3985ft 140kts
07-Dec-17 12:01 33.784252 -117.941785 39 3994ft 141kts
07-Dec-17 12:02 33.816087 -117.913495 40 3993ft 144kts
07-Dec-17 12:04 33.852856 -117.880587 41 4002ft 144kts
07-Dec-17 12:04 33.871104 -117.850997 91 3997ft 141kts
07-Dec-17 12:05 33.870249 -117.805325 89 4003ft 132kts
07-Dec-17 12:06 33.861512 -117.764662 152 4003ft 147kts
07-Dec-17 12:07 33.820223 -117.773063 207 3854ft 161kts
07-Dec-17 12:08 33.785331 -117.804240 210 3741ft 151kts
07-Dec-17 12:09 33.749040 -117.832391 225 3430ft 148kts
07-Dec-17 12:10 33.757500 -117.864242 26 3251ft 131kts
07-Dec-17 12:11 33.790067 -117.845833 27 3067ft 134kts
07-Dec-17 12:12 33.822720 -117.827476 31 3087ft 122kts
07-Dec-17 12:13 33.852264 -117.806344 35 3012ft 120kts
07-Dec-17 12:14 33.879984 -117.783664 69 2913ft 118kts
07-Dec-17 12:15 33.863902 -117.760189 191 2981ft 138kts
07-Dec-17 12:16 33.828799 -117.770799 187 2913ft 119kts
07-Dec-17 12:17 33.797674 -117.789838 206 2637ft 130kts
07-Dec-17 12:18 33.767626 -117.813517 202 2362ft 119kts
07-Dec-17 12:19 33.738599 -117.832056 202 2010ft 116kts
07-Dec-17 12:20 33.712184 -117.849637 202 1512ft 114kts
07-Dec-17 12:21 33.689464 -117.882634 214 1687ft 136kts
07-Dec-17 12:22 33.660859 -117.891945 100 1220ft 104kts
07-Dec-17 12:23 33.671771 -117.871239 29 49ft 48kts
07-Dec-17 12:24 33.673903 -117.869777 73 49ft 8kts
07-Dec-17 12:25 33.674163 -117.868853 65 49ft 0kts
07-Dec-17 12:26 33.673083 -117.867137 200 47ft 9kts

Navigation Log

Ident Type
Flight plan parsing failed, navigation log unavailable